createdAt,value
2023-05-14T00:03:06.612Z,7.00
2023-05-14T00:05:55.308Z,6.95
2023-05-14T00:08:44.015Z,6.91
2023-05-14T00:11:32.553Z,6.89
2023-05-14T00:14:21.570Z,6.85
2023-05-14T00:17:10.011Z,6.78
2023-05-14T00:19:59.576Z,6.75
2023-05-14T00:22:48.022Z,6.72
2023-05-14T00:25:36.965Z,6.69
2023-05-14T00:28:25.475Z,6.63
2023-05-14T00:31:14.236Z,6.59
2023-05-14T00:34:02.714Z,6.58
2023-05-14T00:36:51.595Z,6.58
2023-05-14T00:39:40.074Z,6.57
2023-05-14T00:42:28.993Z,6.53
2023-05-14T00:45:17.724Z,6.50
2023-05-14T00:48:06.812Z,6.47
2023-05-14T00:50:55.689Z,6.44
2023-05-14T00:53:44.986Z,6.45
2023-05-14T00:56:35.216Z,6.46
2023-05-14T00:59:23.922Z,6.47
2023-05-14T01:03:26.320Z,6.48
2023-05-14T01:06:33.268Z,6.47
2023-05-14T01:09:28.015Z,6.48
2023-05-14T01:12:41.107Z,6.49
2023-05-14T01:15:32.419Z,6.49
2023-05-14T01:18:22.067Z,6.49
2023-05-14T01:21:40.938Z,6.46
2023-05-14T01:24:29.562Z,6.45
2023-05-14T01:27:21.912Z,6.42
2023-05-14T01:30:26.306Z,6.38
2023-05-14T01:33:21.057Z,6.36
2023-05-14T01:36:10.488Z,6.33
2023-05-14T01:39:01.281Z,6.33
2023-05-14T01:41:51.132Z,6.35
2023-05-14T01:44:40.827Z,6.30
2023-05-14T01:47:29.813Z,6.25
2023-05-14T01:50:18.610Z,6.23
2023-05-14T01:53:07.305Z,6.22
2023-05-14T01:55:55.996Z,6.20
2023-05-14T01:58:44.569Z,6.20
2023-05-14T02:01:34.053Z,6.22
2023-05-14T02:04:22.849Z,6.24
2023-05-14T02:07:11.499Z,6.27
2023-05-14T02:10:00.347Z,6.30
2023-05-14T02:12:49.818Z,6.29
2023-05-14T02:15:38.925Z,6.29
2023-05-14T02:18:27.632Z,6.29
2023-05-14T02:21:16.612Z,6.29
2023-05-14T02:24:05.214Z,6.29
2023-05-14T02:26:54.306Z,6.30
2023-05-14T02:29:42.906Z,6.29
2023-05-14T02:32:31.589Z,6.28
2023-05-14T02:35:20.446Z,6.26
2023-05-14T02:38:08.937Z,6.23
2023-05-14T02:40:57.622Z,6.21
2023-05-14T02:43:46.251Z,6.20
2023-05-14T02:46:35.857Z,6.19
2023-05-14T02:49:24.484Z,6.16
2023-05-14T02:52:13.076Z,6.13
2023-05-14T02:55:02.392Z,6.09
2023-05-14T02:57:53.074Z,6.07
2023-05-14T03:00:41.669Z,6.09
2023-05-14T03:03:31.081Z,6.10
2023-05-14T03:06:20.266Z,6.13
2023-05-14T03:09:08.988Z,6.15
2023-05-14T03:11:57.630Z,6.21
2023-05-14T03:14:46.129Z,6.25
2023-05-14T03:17:34.720Z,6.26
2023-05-14T03:20:26.156Z,6.28
2023-05-14T03:23:15.490Z,6.32
2023-05-14T03:26:04.953Z,6.36
2023-05-14T03:28:53.780Z,6.41
2023-05-14T03:31:42.385Z,6.45
2023-05-14T03:34:31.051Z,6.47
2023-05-14T03:37:20.735Z,6.51
2023-05-14T03:40:09.727Z,6.53
2023-05-14T03:42:58.398Z,6.56
2023-05-14T03:45:47.186Z,6.64
2023-05-14T03:48:38.488Z,6.73
2023-05-14T03:51:27.255Z,6.81
2023-05-14T03:54:15.954Z,6.86
2023-05-14T03:57:06.388Z,6.91
2023-05-14T03:59:54.927Z,6.96
2023-05-14T04:02:44.185Z,7.02
2023-05-14T04:05:32.844Z,7.09
2023-05-14T04:08:21.585Z,7.19
2023-05-14T04:11:11.246Z,7.27
2023-05-14T04:14:00.153Z,7.35
2023-05-14T04:16:48.714Z,7.46
2023-05-14T04:19:37.562Z,7.56
2023-05-14T04:22:26.158Z,7.67
2023-05-14T04:25:15.122Z,7.78
2023-05-14T04:28:03.592Z,7.88
2023-05-14T04:30:52.674Z,7.97
2023-05-14T04:33:41.373Z,8.03
2023-05-14T04:36:30.031Z,8.09
2023-05-14T04:39:19.290Z,8.15
2023-05-14T04:42:08.187Z,8.22
2023-05-14T04:44:56.881Z,8.29
2023-05-14T04:47:46.788Z,8.39
2023-05-14T04:50:35.628Z,8.50
2023-05-14T04:53:24.468Z,8.63
2023-05-14T04:56:12.955Z,8.78
2023-05-14T04:59:01.614Z,8.91
2023-05-14T05:01:50.127Z,9.03
2023-05-14T05:04:39.135Z,9.12
2023-05-14T05:07:27.680Z,9.21
2023-05-14T05:10:16.538Z,9.41
2023-05-14T05:13:05.212Z,9.67
2023-05-14T05:15:54.145Z,9.90
2023-05-14T05:18:44.669Z,10.17
2023-05-14T05:21:33.514Z,10.52
2023-05-14T05:24:22.226Z,10.90
2023-05-14T05:27:10.689Z,11.32
2023-05-14T05:30:01.036Z,11.65
2023-05-14T05:32:49.649Z,11.94
2023-05-14T05:35:38.318Z,12.22
2023-05-14T05:38:26.804Z,12.46
2023-05-14T05:41:15.401Z,12.67
2023-05-14T05:44:04.134Z,12.96
2023-05-14T05:46:52.862Z,13.25
2023-05-14T05:49:41.486Z,13.54
2023-05-14T05:52:30.030Z,13.81
2023-05-14T05:55:19.230Z,14.00
2023-05-14T05:58:07.965Z,14.16
2023-05-14T06:00:58.221Z,14.30
2023-05-14T06:03:48.404Z,14.52
2023-05-14T06:06:37.279Z,14.58
2023-05-14T06:09:25.719Z,14.48
2023-05-14T06:12:14.540Z,14.46
2023-05-14T06:15:03.392Z,14.58
2023-05-14T06:17:52.038Z,14.67
2023-05-14T06:20:41.515Z,14.81
2023-05-14T06:23:30.112Z,14.86
2023-05-14T06:26:18.785Z,15.00
2023-05-14T06:29:07.436Z,15.30
2023-05-14T06:32:01.159Z,15.48
2023-05-14T06:34:49.876Z,15.67
2023-05-14T06:37:38.378Z,15.81
2023-05-14T06:40:27.151Z,15.90
2023-05-14T06:43:15.767Z,16.01
2023-05-14T06:46:04.679Z,16.18
2023-05-14T06:48:53.306Z,16.29
2023-05-14T06:51:42.036Z,16.27
2023-05-14T06:54:31.177Z,16.27
2023-05-14T06:57:21.132Z,16.27
2023-05-14T07:00:10.169Z,16.26
2023-05-14T07:02:58.804Z,16.33
2023-05-14T07:05:47.343Z,16.36
2023-05-14T07:08:36.172Z,16.43
2023-05-14T07:11:24.616Z,16.69
2023-05-14T07:14:13.300Z,16.91
2023-05-14T07:17:02.007Z,17.08
2023-05-14T07:19:51.354Z,17.21
2023-05-14T07:22:40.033Z,17.37
2023-05-14T07:25:28.862Z,17.50
2023-05-14T07:28:17.849Z,17.60
2023-05-14T07:31:09.064Z,17.75
2023-05-14T07:33:57.813Z,17.82
2023-05-14T07:36:47.230Z,17.78
2023-05-14T07:39:36.027Z,17.77
2023-05-14T07:42:35.321Z,17.79
2023-05-14T07:45:25.869Z,17.72
2023-05-14T07:48:14.543Z,17.72
2023-05-14T07:51:03.160Z,17.81
2023-05-14T07:53:51.693Z,17.99
2023-05-14T07:56:40.183Z,18.14
2023-05-14T07:59:28.803Z,18.25
2023-05-14T08:02:17.649Z,18.36
2023-05-14T08:05:07.044Z,18.43
2023-05-14T08:07:55.750Z,18.26
2023-05-14T08:10:44.832Z,18.10
2023-05-14T08:13:33.667Z,18.13
2023-05-14T08:16:22.389Z,18.23
2023-05-14T08:19:12.734Z,18.28
2023-05-14T08:22:01.543Z,18.46
2023-05-14T08:24:50.030Z,18.42
2023-05-14T08:27:38.757Z,18.36
2023-05-14T08:30:28.470Z,18.53
2023-05-14T08:33:18.200Z,18.63
2023-05-14T08:36:07.418Z,18.62
2023-05-14T08:38:56.072Z,18.69
2023-05-14T08:41:45.345Z,18.89
2023-05-14T08:44:44.663Z,19.17
2023-05-14T08:47:33.782Z,19.16
2023-05-14T08:50:23.663Z,19.03
2023-05-14T08:53:12.464Z,18.92
2023-05-14T08:56:02.265Z,18.89
2023-05-14T08:58:50.735Z,18.63
2023-05-14T09:01:44.620Z,18.40
2023-05-14T09:04:33.770Z,18.55
2023-05-14T09:07:22.520Z,18.85
2023-05-14T09:10:11.606Z,18.90
2023-05-14T09:13:00.406Z,19.09
2023-05-14T09:15:51.240Z,19.25
2023-05-14T09:18:44.518Z,19.43
2023-05-14T09:21:33.923Z,19.40
2023-05-14T09:24:29.116Z,19.18
2023-05-14T09:27:22.657Z,19.25
2023-05-14T09:30:13.154Z,19.51
2023-05-14T09:33:04.002Z,19.80
2023-05-14T09:35:58.249Z,19.87
2023-05-14T09:38:47.074Z,19.86
2023-05-14T09:41:35.543Z,20.01
2023-05-14T09:44:24.976Z,20.12
2023-05-14T09:47:15.476Z,20.08
2023-05-14T09:50:05.415Z,19.87
2023-05-14T09:52:55.773Z,19.79
2023-05-14T09:55:45.372Z,19.57
2023-05-14T09:58:33.950Z,19.39
2023-05-14T10:01:22.849Z,19.31
2023-05-14T10:04:12.652Z,19.20
2023-05-14T10:07:01.690Z,19.18
2023-05-14T10:09:59.403Z,19.30
2023-05-14T10:13:04.824Z,19.46
2023-05-14T10:16:16.615Z,19.71
2023-05-14T10:19:12.938Z,19.90
2023-05-14T10:22:05.785Z,20.03
2023-05-14T10:24:55.774Z,19.92
2023-05-14T10:27:44.767Z,19.88
2023-05-14T10:30:33.355Z,19.97
2023-05-14T10:33:22.488Z,20.09
2023-05-14T10:36:11.082Z,20.16
2023-05-14T10:39:04.426Z,20.13
2023-05-14T10:41:52.947Z,20.24
2023-05-14T10:44:56.820Z,20.16
2023-05-14T10:47:47.157Z,20.04
2023-05-14T10:50:35.882Z,20.11
2023-05-14T10:53:41.909Z,20.29
2023-05-14T10:56:30.612Z,20.36
2023-05-14T10:59:19.144Z,20.46
2023-05-14T11:02:20.412Z,20.61
2023-05-14T11:05:13.710Z,20.77
2023-05-14T11:08:06.213Z,20.95
2023-05-14T11:10:55.469Z,21.14
2023-05-14T11:13:45.049Z,21.31
2023-05-14T11:16:33.930Z,21.36
2023-05-14T11:19:22.646Z,21.37
2023-05-14T11:22:13.782Z,21.49
2023-05-14T11:25:02.508Z,21.71
2023-05-14T11:27:51.589Z,21.78
2023-05-14T11:30:40.160Z,21.77
2023-05-14T11:33:29.389Z,21.60
2023-05-14T11:36:17.900Z,21.59
2023-05-14T11:39:08.273Z,21.64
2023-05-14T11:41:58.045Z,21.65
2023-05-14T11:44:49.073Z,21.58
2023-05-14T11:47:38.192Z,21.68
2023-05-14T11:50:26.876Z,21.80
2023-05-14T11:53:28.073Z,21.86
2023-05-14T11:56:16.506Z,21.98
2023-05-14T11:59:06.380Z,22.08
2023-05-14T12:01:58.892Z,22.20
2023-05-14T12:04:52.076Z,22.25
2023-05-14T12:07:41.940Z,22.30
2023-05-14T12:10:30.581Z,22.34
2023-05-14T12:13:20.024Z,22.42
2023-05-14T12:16:09.076Z,22.48
2023-05-14T12:19:02.185Z,22.52
2023-05-14T12:21:51.533Z,22.44
2023-05-14T12:24:40.339Z,22.52
2023-05-14T12:27:30.486Z,22.55
2023-05-14T12:30:22.568Z,22.64
2023-05-14T12:33:11.332Z,22.74
2023-05-14T12:36:10.066Z,22.68
2023-05-14T12:39:03.813Z,22.75
2023-05-14T12:41:52.736Z,22.86
2023-05-14T12:44:41.475Z,22.94
2023-05-14T12:47:30.105Z,23.09
2023-05-14T12:50:19.005Z,23.06
2023-05-14T12:53:08.083Z,23.11
2023-05-14T12:55:56.836Z,23.00
2023-05-14T12:58:46.817Z,22.93
2023-05-14T13:01:35.594Z,22.91
2023-05-14T13:04:24.117Z,22.91
2023-05-14T13:07:12.824Z,22.86
2023-05-14T13:10:01.434Z,22.73
2023-05-14T13:12:50.675Z,22.68
2023-05-14T13:15:39.183Z,22.61
2023-05-14T13:18:28.084Z,22.55
2023-05-14T13:21:16.648Z,22.48
2023-05-14T13:24:08.498Z,22.45
2023-05-14T13:26:57.060Z,22.47
2023-05-14T13:29:46.378Z,22.38
2023-05-14T13:32:35.004Z,22.26
2023-05-14T13:35:24.461Z,22.23
2023-05-14T13:38:13.359Z,22.23
2023-05-14T13:41:02.730Z,22.21
2023-05-14T13:43:51.436Z,22.14
2023-05-14T13:46:40.007Z,22.04
2023-05-14T13:49:30.162Z,22.11
2023-05-14T13:52:19.165Z,22.10
2023-05-14T13:55:08.334Z,22.06
2023-05-14T13:57:56.898Z,21.97
2023-05-14T14:00:45.524Z,21.91
2023-05-14T14:03:34.316Z,21.84
2023-05-14T14:06:22.854Z,21.79
2023-05-14T14:09:13.432Z,21.74
2023-05-14T14:12:05.514Z,21.73
2023-05-14T14:14:54.108Z,21.76
2023-05-14T14:17:42.798Z,21.76
2023-05-14T14:20:32.769Z,21.74
2023-05-14T14:23:21.406Z,21.71
2023-05-14T14:26:10.138Z,21.73
2023-05-14T14:28:58.834Z,21.70
2023-05-14T14:31:47.600Z,21.62
2023-05-14T14:34:36.191Z,21.69
2023-05-14T14:37:24.792Z,21.69
2023-05-14T14:40:13.367Z,21.70
2023-05-14T14:43:02.447Z,21.70
2023-05-14T14:45:51.086Z,21.66
2023-05-14T14:48:39.988Z,21.60
2023-05-14T14:51:30.328Z,21.60
2023-05-14T14:54:18.854Z,21.56
2023-05-14T14:57:07.464Z,21.53
2023-05-14T14:59:56.194Z,21.50
2023-05-14T15:02:44.815Z,21.45
2023-05-14T15:05:33.599Z,21.33
2023-05-14T15:08:29.879Z,21.27
2023-05-14T15:11:18.478Z,21.23
2023-05-14T15:14:07.244Z,21.16
2023-05-14T15:16:55.764Z,21.11
2023-05-14T15:19:44.513Z,21.07
2023-05-14T15:22:33.498Z,21.04
2023-05-14T15:25:23.872Z,21.02
2023-05-14T15:28:12.640Z,21.05
2023-05-14T15:31:02.628Z,21.09
2023-05-14T15:33:52.259Z,21.08
2023-05-14T15:36:41.036Z,21.08
2023-05-14T15:39:31.398Z,21.07
2023-05-14T15:42:21.002Z,21.05
2023-05-14T15:45:13.683Z,20.98
2023-05-14T15:48:02.299Z,20.95
2023-05-14T15:50:51.637Z,20.90
2023-05-14T15:53:40.105Z,20.83
2023-05-14T15:56:29.688Z,20.77
2023-05-14T15:59:19.260Z,20.73
2023-05-14T16:02:09.207Z,20.71
2023-05-14T16:04:57.764Z,20.68
2023-05-14T16:07:46.573Z,20.65
2023-05-14T16:10:35.273Z,20.63
2023-05-14T16:13:24.247Z,20.54
2023-05-14T16:16:12.809Z,20.47
2023-05-14T16:19:01.508Z,20.41
2023-05-14T16:21:50.342Z,20.35
2023-05-14T16:24:38.921Z,20.29
2023-05-14T16:27:27.562Z,20.24
2023-05-14T16:30:16.523Z,20.20
2023-05-14T16:33:05.492Z,20.19
2023-05-14T16:35:54.303Z,20.16
2023-05-14T16:39:05.354Z,20.12
2023-05-14T16:41:51.974Z,20.04
2023-05-14T16:44:40.538Z,19.97
2023-05-14T16:47:29.483Z,19.91
2023-05-14T16:50:18.204Z,19.88
2023-05-14T16:53:06.956Z,19.84
2023-05-14T16:55:55.625Z,19.80
2023-05-14T16:58:44.247Z,19.76
2023-05-14T17:01:33.105Z,19.73
2023-05-14T17:04:22.106Z,19.65
2023-05-14T17:07:11.598Z,19.57
2023-05-14T17:10:00.792Z,19.49
2023-05-14T17:12:49.311Z,19.43
2023-05-14T17:15:55.727Z,19.34
2023-05-14T17:18:43.257Z,19.27
2023-05-14T17:21:31.884Z,19.21
2023-05-14T17:24:20.409Z,19.13
2023-05-14T17:27:09.257Z,19.06
2023-05-14T17:29:57.745Z,19.02
2023-05-14T17:32:47.067Z,18.95
2023-05-14T17:35:37.598Z,18.86
2023-05-14T17:38:26.329Z,18.76
2023-05-14T17:41:14.920Z,18.63
2023-05-14T17:44:03.710Z,18.53
2023-05-14T17:46:52.319Z,18.41
2023-05-14T17:49:41.084Z,18.27
2023-05-14T17:52:29.656Z,18.16
2023-05-14T17:55:19.252Z,18.07
2023-05-14T17:58:07.864Z,17.97
2023-05-14T18:00:57.127Z,17.88
2023-05-14T18:03:45.798Z,17.79
2023-05-14T18:06:34.482Z,17.70
2023-05-14T18:09:23.014Z,17.60
2023-05-14T18:12:12.007Z,17.50
2023-05-14T18:15:00.674Z,17.41
2023-05-14T18:17:49.708Z,17.30
2023-05-14T18:20:38.260Z,17.21
2023-05-14T18:23:27.024Z,17.11
2023-05-14T18:26:15.893Z,17.01
2023-05-14T18:29:04.685Z,16.91
2023-05-14T18:31:53.280Z,16.82
2023-05-14T18:34:41.864Z,16.73
2023-05-14T18:37:30.608Z,16.65
2023-05-14T18:40:19.422Z,16.58
2023-05-14T18:43:08.312Z,16.47
2023-05-14T18:45:57.143Z,16.37
2023-05-14T18:48:45.866Z,16.29
2023-05-14T18:51:34.455Z,16.22
2023-05-14T18:54:23.042Z,16.15
2023-05-14T18:57:13.588Z,16.06
2023-05-14T19:00:02.189Z,15.97
2023-05-14T19:02:51.042Z,15.91
2023-05-14T19:05:39.635Z,15.85
2023-05-14T19:08:28.481Z,15.80
2023-05-14T19:11:18.182Z,15.74
2023-05-14T19:14:07.010Z,15.69
2023-05-14T19:16:56.010Z,15.61
2023-05-14T19:19:45.006Z,15.52
2023-05-14T19:22:33.554Z,15.46
2023-05-14T19:25:22.120Z,15.45
2023-05-14T19:28:11.109Z,15.45
2023-05-14T19:30:59.984Z,15.46
2023-05-14T19:33:48.490Z,15.46
2023-05-14T19:36:37.155Z,15.45
2023-05-14T19:39:26.341Z,15.44
2023-05-14T19:42:14.958Z,15.43
2023-05-14T19:45:04.071Z,15.42
2023-05-14T19:47:52.946Z,15.42
2023-05-14T19:50:41.608Z,15.40
2023-05-14T19:53:30.575Z,15.38
2023-05-14T19:56:19.308Z,15.37
2023-05-14T19:59:07.946Z,15.37
2023-05-14T20:01:56.471Z,15.35
2023-05-14T20:04:46.067Z,15.35
2023-05-14T20:07:35.377Z,15.33
2023-05-14T20:10:24.560Z,15.30
2023-05-14T20:13:13.723Z,15.27
2023-05-14T20:16:03.261Z,15.26
2023-05-14T20:18:53.292Z,15.26
2023-05-14T20:21:42.084Z,15.26
2023-05-14T20:24:30.725Z,15.27
2023-05-14T20:27:19.434Z,15.27
2023-05-14T20:30:08.475Z,15.28
2023-05-14T20:32:57.268Z,15.28
2023-05-14T20:35:46.252Z,15.28
2023-05-14T20:38:35.253Z,15.29
2023-05-14T20:41:23.845Z,15.28
2023-05-14T20:44:12.496Z,15.29
2023-05-14T20:47:01.192Z,15.30
2023-05-14T20:49:50.518Z,15.29
2023-05-14T20:52:39.775Z,15.28
2023-05-14T20:55:28.431Z,15.27
2023-05-14T20:58:17.037Z,15.27
2023-05-14T21:01:07.968Z,15.27
2023-05-14T21:03:56.721Z,15.25
2023-05-14T21:06:45.846Z,15.21
2023-05-14T21:09:34.408Z,15.19
2023-05-14T21:12:23.066Z,15.17
2023-05-14T21:15:11.618Z,15.16
2023-05-14T21:18:00.271Z,15.14
2023-05-14T21:20:48.881Z,15.13
2023-05-14T21:23:37.355Z,15.09
2023-05-14T21:26:26.385Z,15.03
2023-05-14T21:29:15.221Z,15.01
2023-05-14T21:32:04.715Z,15.01
2023-05-14T21:34:53.381Z,15.00
2023-05-14T21:37:42.109Z,14.99
2023-05-14T21:40:30.880Z,14.96
2023-05-14T21:43:19.661Z,14.95
2023-05-14T21:46:08.595Z,14.92
2023-05-14T21:48:57.136Z,14.89
2023-05-14T21:51:46.180Z,14.86
2023-05-14T21:54:34.792Z,14.84
2023-05-14T21:57:23.437Z,14.82
2023-05-14T22:00:13.356Z,14.80
2023-05-14T22:03:04.059Z,14.76
2023-05-14T22:05:53.289Z,14.74
2023-05-14T22:08:42.090Z,14.73
2023-05-14T22:11:30.565Z,14.71
2023-05-14T22:14:19.099Z,14.70
2023-05-14T22:17:07.693Z,14.69
2023-05-14T22:19:56.284Z,14.68
2023-05-14T22:22:47.566Z,14.67
2023-05-14T22:25:36.148Z,14.65
2023-05-14T22:28:24.604Z,14.63
2023-05-14T22:31:13.332Z,14.61
2023-05-14T22:34:01.811Z,14.59
2023-05-14T22:36:50.493Z,14.57
2023-05-14T22:39:38.989Z,14.55
2023-05-14T22:42:28.522Z,14.54
2023-05-14T22:45:17.471Z,14.53
2023-05-14T22:48:06.380Z,14.50
2023-05-14T22:50:55.278Z,14.45
2023-05-14T22:53:43.872Z,14.41
2023-05-14T22:56:32.804Z,14.37
2023-05-14T22:59:23.539Z,14.35
2023-05-14T23:02:12.750Z,14.32
2023-05-14T23:05:01.334Z,14.28
2023-05-14T23:07:49.820Z,14.24
2023-05-14T23:10:38.487Z,14.21
2023-05-14T23:13:27.035Z,14.18
2023-05-14T23:16:16.173Z,14.15
2023-05-14T23:19:04.972Z,14.16
2023-05-14T23:21:53.932Z,14.16
2023-05-14T23:24:42.529Z,14.18
2023-05-14T23:27:31.357Z,14.18
2023-05-14T23:30:20.125Z,14.17
2023-05-14T23:33:08.806Z,14.14
2023-05-14T23:35:57.607Z,14.09
2023-05-14T23:38:47.126Z,14.05
2023-05-14T23:41:35.782Z,14.01
2023-05-14T23:44:24.379Z,14.00
2023-05-14T23:47:13.266Z,14.00
2023-05-14T23:50:02.065Z,13.98
2023-05-14T23:52:54.915Z,13.92
2023-05-14T23:55:43.517Z,13.74
2023-05-14T23:58:32.986Z,13.58
